createdAt,value
2022-08-14T00:02:01.448Z,24.97
2022-08-14T00:04:35.436Z,24.93
2022-08-14T00:07:11.154Z,24.90
2022-08-14T00:09:39.839Z,24.86
2022-08-14T00:12:23.619Z,24.79
2022-08-14T00:14:54.816Z,24.76
2022-08-14T00:17:23.258Z,24.73
2022-08-14T00:19:52.453Z,24.70
2022-08-14T00:22:44.658Z,24.65
2022-08-14T00:25:10.190Z,24.62
2022-08-14T00:27:38.519Z,24.61
2022-08-14T00:30:10.764Z,24.60
2022-08-14T00:32:52.079Z,24.57
2022-08-14T00:36:37.002Z,24.53
2022-08-14T00:38:13.749Z,24.49
2022-08-14T00:40:46.185Z,24.47
2022-08-14T00:43:15.302Z,24.42
2022-08-14T00:45:43.690Z,24.38
2022-08-14T00:48:34.478Z,24.34
2022-08-14T00:51:07.597Z,24.31
2022-08-14T00:53:36.518Z,24.27
2022-08-14T00:56:07.150Z,24.23
2022-08-14T00:58:44.897Z,24.21
2022-08-14T01:01:14.608Z,24.18
2022-08-14T01:03:45.315Z,24.16
2022-08-14T01:06:18.398Z,24.13
2022-08-14T01:08:51.495Z,24.12
2022-08-14T01:11:35.681Z,24.10
2022-08-14T01:14:25.823Z,24.09
2022-08-14T01:16:55.414Z,24.04
2022-08-14T01:19:41.582Z,24.04
2022-08-14T01:22:12.268Z,24.00
2022-08-14T01:24:43.595Z,23.98
2022-08-14T01:27:16.035Z,23.94
2022-08-14T01:30:03.091Z,23.92
2022-08-14T01:32:37.357Z,23.89
2022-08-14T01:35:17.851Z,23.82
2022-08-14T01:37:59.821Z,23.78
2022-08-14T01:40:33.007Z,23.74
2022-08-14T01:43:04.973Z,23.67
2022-08-14T01:45:40.859Z,23.64
2022-08-14T01:48:13.852Z,23.60
2022-08-14T01:50:44.201Z,23.58
2022-08-14T01:53:14.601Z,23.56
2022-08-14T01:55:42.430Z,23.54
2022-08-14T01:58:19.801Z,23.53
2022-08-14T02:00:54.953Z,23.48
2022-08-14T02:03:28.364Z,23.45
2022-08-14T02:05:59.869Z,23.44
2022-08-14T02:08:34.621Z,23.46
2022-08-14T02:11:22.391Z,23.44
2022-08-14T02:13:53.210Z,23.42
2022-08-14T02:16:26.408Z,23.41
2022-08-14T02:18:55.826Z,23.38
2022-08-14T02:21:23.765Z,23.35
2022-08-14T02:23:54.750Z,23.32
2022-08-14T02:26:29.565Z,23.24
2022-08-14T02:29:03.572Z,23.22
2022-08-14T02:31:42.042Z,23.20
2022-08-14T02:34:19.936Z,23.17
2022-08-14T02:37:04.285Z,23.15
2022-08-14T02:39:38.011Z,23.12
2022-08-14T02:42:13.208Z,23.10
2022-08-14T02:44:49.215Z,23.05
2022-08-14T02:47:20.627Z,22.99
2022-08-14T02:49:54.836Z,22.94
2022-08-14T02:52:56.857Z,22.89
2022-08-14T02:55:19.894Z,22.88
2022-08-14T02:57:57.885Z,22.87
2022-08-14T03:00:27.294Z,22.85
2022-08-14T03:02:58.462Z,22.83
2022-08-14T03:05:32.914Z,22.80
2022-08-14T03:08:08.825Z,22.74
2022-08-14T03:10:41.907Z,22.70
2022-08-14T03:13:20.874Z,22.66
2022-08-14T03:15:55.888Z,22.62
2022-08-14T03:18:31.112Z,22.60
2022-08-14T03:21:02.868Z,22.55
2022-08-14T03:23:34.076Z,22.53
2022-08-14T03:26:07.110Z,22.49
2022-08-14T03:28:36.681Z,22.49
2022-08-14T03:31:08.424Z,22.50
2022-08-14T03:33:41.796Z,22.46
2022-08-14T03:37:38.575Z,22.43
2022-08-14T03:39:13.606Z,22.41
2022-08-14T03:41:47.775Z,22.38
2022-08-14T03:45:26.684Z,22.35
2022-08-14T03:47:03.463Z,22.33
2022-08-14T03:49:31.294Z,22.30
2022-08-14T03:52:18.053Z,22.27
2022-08-14T03:54:53.139Z,22.21
2022-08-14T03:57:22.769Z,22.20
2022-08-14T03:59:51.656Z,22.20
2022-08-14T04:02:33.408Z,22.14
2022-08-14T04:05:11.563Z,22.10
2022-08-14T04:07:49.473Z,22.09
2022-08-14T04:10:31.630Z,22.06
2022-08-14T04:13:03.770Z,22.03
2022-08-14T04:15:40.942Z,22.00
2022-08-14T04:18:21.155Z,21.95
2022-08-14T04:20:54.288Z,21.92
2022-08-14T04:23:30.010Z,21.89
2022-08-14T04:26:04.777Z,21.87
2022-08-14T04:29:07.151Z,21.87
2022-08-14T04:33:02.075Z,21.84
2022-08-14T04:34:17.058Z,21.78
2022-08-14T04:37:07.353Z,21.78
2022-08-14T04:39:57.210Z,21.79
2022-08-14T04:42:47.533Z,21.78
2022-08-14T04:45:23.243Z,21.79
2022-08-14T04:48:10.169Z,21.81
2022-08-14T04:50:44.712Z,21.80
2022-08-14T04:53:16.272Z,21.82
2022-08-14T04:55:50.030Z,21.85
2022-08-14T04:58:32.961Z,21.87
2022-08-14T05:01:06.199Z,21.90
2022-08-14T05:03:41.028Z,21.91
2022-08-14T05:06:35.058Z,21.95
2022-08-14T05:09:00.384Z,21.99
2022-08-14T05:11:33.332Z,22.04
2022-08-14T05:14:33.993Z,22.08
2022-08-14T05:16:59.265Z,22.12
2022-08-14T05:19:30.000Z,22.16
2022-08-14T05:22:16.855Z,22.21
2022-08-14T05:24:50.333Z,22.28
2022-08-14T05:27:22.604Z,22.32
2022-08-14T05:29:53.768Z,22.39
2022-08-14T05:32:27.167Z,22.43
2022-08-14T05:34:58.112Z,22.48
2022-08-14T05:37:26.631Z,22.52
2022-08-14T05:39:54.896Z,22.58
2022-08-14T05:42:29.482Z,22.64
2022-08-14T05:45:01.981Z,22.71
2022-08-14T05:47:39.250Z,22.77
2022-08-14T05:50:19.281Z,22.83
2022-08-14T05:52:49.304Z,22.91
2022-08-14T05:55:22.640Z,22.93
2022-08-14T05:57:54.729Z,23.03
2022-08-14T06:00:34.799Z,23.11
2022-08-14T06:03:09.758Z,23.20
2022-08-14T06:05:38.827Z,23.29
2022-08-14T06:08:08.651Z,23.41
2022-08-14T06:10:50.498Z,23.50
2022-08-14T06:13:18.533Z,23.58
2022-08-14T06:15:47.492Z,23.68
2022-08-14T06:18:17.511Z,23.80
2022-08-14T06:20:45.957Z,23.91
2022-08-14T06:23:14.552Z,23.98
2022-08-14T06:25:44.683Z,24.07
2022-08-14T06:28:27.868Z,24.23
2022-08-14T06:30:56.773Z,24.34
2022-08-14T06:33:45.791Z,24.46
2022-08-14T06:36:14.695Z,24.53
2022-08-14T06:38:46.334Z,24.57
2022-08-14T06:41:20.739Z,24.60
2022-08-14T06:43:49.207Z,24.66
2022-08-14T06:46:26.551Z,24.69
2022-08-14T06:49:03.740Z,24.73
2022-08-14T06:51:44.707Z,24.78
2022-08-14T06:54:13.318Z,24.86
2022-08-14T06:56:44.432Z,24.96
2022-08-14T06:59:22.417Z,25.09
2022-08-14T07:02:13.735Z,25.15
2022-08-14T07:05:05.613Z,25.24
2022-08-14T07:07:39.221Z,25.34
2022-08-14T07:10:07.931Z,25.43
2022-08-14T07:12:54.926Z,25.54
2022-08-14T07:15:30.209Z,25.64
2022-08-14T07:18:01.276Z,25.70
2022-08-14T07:20:32.061Z,25.69
2022-08-14T07:23:07.462Z,25.72
2022-08-14T07:25:37.789Z,25.74
2022-08-14T07:28:12.974Z,25.76
2022-08-14T07:30:50.744Z,25.83
2022-08-14T07:33:24.914Z,25.89
2022-08-14T07:36:01.471Z,26.03
2022-08-14T07:38:33.942Z,26.11
2022-08-14T07:41:11.608Z,26.22
2022-08-14T07:43:43.028Z,26.30
2022-08-14T07:46:12.276Z,26.32
2022-08-14T07:48:41.529Z,26.42
2022-08-14T07:51:11.627Z,26.48
2022-08-14T07:53:40.495Z,26.57
2022-08-14T07:56:43.890Z,26.65
2022-08-14T07:58:58.766Z,26.75
2022-08-14T08:01:29.989Z,26.80
2022-08-14T08:04:00.334Z,26.84
2022-08-14T08:06:31.001Z,26.88
2022-08-14T08:09:02.861Z,26.93
2022-08-14T08:11:37.178Z,26.95
2022-08-14T08:14:10.855Z,27.01
2022-08-14T08:16:47.329Z,27.06
2022-08-14T08:19:19.223Z,27.07
2022-08-14T08:21:48.656Z,27.09
2022-08-14T08:24:19.688Z,27.15
2022-08-14T08:26:50.449Z,27.16
2022-08-14T08:29:24.966Z,27.22
2022-08-14T08:31:56.549Z,27.32
2022-08-14T08:34:30.457Z,27.43
2022-08-14T08:37:05.133Z,27.52
2022-08-14T08:40:02.376Z,27.54
2022-08-14T08:42:41.439Z,27.61
2022-08-14T08:45:17.480Z,27.70
2022-08-14T08:47:46.528Z,27.73
2022-08-14T08:50:31.716Z,27.74
2022-08-14T08:53:02.140Z,27.78
2022-08-14T08:55:34.167Z,27.81
2022-08-14T08:58:04.387Z,27.89
2022-08-14T09:00:36.165Z,27.99
2022-08-14T09:03:10.206Z,28.07
2022-08-14T09:05:57.985Z,28.12
2022-08-14T09:08:43.648Z,28.17
2022-08-14T09:11:19.486Z,28.21
2022-08-14T09:13:50.855Z,28.30
2022-08-14T09:16:21.805Z,28.36
2022-08-14T09:18:53.487Z,28.39
2022-08-14T09:21:24.128Z,28.40
2022-08-14T09:24:28.616Z,28.43
2022-08-14T09:26:44.233Z,28.46
2022-08-14T09:29:17.418Z,28.54
2022-08-14T09:31:53.182Z,28.60
2022-08-14T09:34:31.160Z,28.67
2022-08-14T09:37:35.781Z,28.79
2022-08-14T09:40:16.782Z,28.86
2022-08-14T09:43:01.546Z,28.91
2022-08-14T09:45:39.944Z,28.93
2022-08-14T09:48:27.535Z,28.97
2022-08-14T09:54:18.578Z,29.08
2022-08-14T09:56:31.024Z,29.14
2022-08-14T09:59:00.305Z,29.20
2022-08-14T10:01:40.181Z,29.32
2022-08-14T10:04:33.909Z,29.41
2022-08-14T10:07:04.478Z,29.46
2022-08-14T10:09:33.181Z,29.47
2022-08-14T10:12:18.623Z,29.52
2022-08-14T10:14:54.721Z,29.55
2022-08-14T10:17:27.514Z,29.55
2022-08-14T10:20:00.826Z,29.60
2022-08-14T10:23:15.168Z,29.59
2022-08-14T10:25:19.835Z,29.63
2022-08-14T10:28:00.059Z,29.72
2022-08-14T10:30:37.574Z,29.79
2022-08-14T10:33:07.066Z,29.83
2022-08-14T10:35:47.919Z,29.90
2022-08-14T10:38:26.779Z,29.91
2022-08-14T10:40:59.137Z,30.03
2022-08-14T10:43:31.906Z,30.04
2022-08-14T10:46:22.118Z,29.90
2022-08-14T10:48:58.351Z,29.79
2022-08-14T10:51:27.334Z,29.93
2022-08-14T10:54:01.886Z,29.99
2022-08-14T10:56:45.488Z,30.09
2022-08-14T10:59:15.367Z,30.25
2022-08-14T11:01:43.195Z,30.36
2022-08-14T11:04:25.879Z,30.46
2022-08-14T11:06:56.878Z,30.50
2022-08-14T11:09:26.447Z,30.53
2022-08-14T11:12:33.793Z,30.55
2022-08-14T11:14:59.321Z,30.57
2022-08-14T11:17:32.119Z,30.59
2022-08-14T11:20:01.761Z,30.61
2022-08-14T11:22:52.352Z,30.65
2022-08-14T11:25:21.396Z,30.71
2022-08-14T11:27:49.465Z,30.72
2022-08-14T11:30:49.922Z,30.78
2022-08-14T11:33:09.450Z,30.86
2022-08-14T11:35:47.374Z,30.88
2022-08-14T11:38:17.965Z,30.82
2022-08-14T11:40:47.053Z,30.90
2022-08-14T11:43:16.391Z,30.89
2022-08-14T11:45:48.781Z,30.93
2022-08-14T11:49:02.469Z,31.01
2022-08-14T11:51:13.845Z,31.17
2022-08-14T11:53:43.613Z,31.17
2022-08-14T11:56:13.912Z,31.22
2022-08-14T11:58:42.333Z,31.30
2022-08-14T12:01:11.621Z,31.32
2022-08-14T12:03:46.771Z,31.40
2022-08-14T12:06:29.310Z,31.40
2022-08-14T12:09:08.590Z,31.40
2022-08-14T12:11:47.424Z,31.46
2022-08-14T12:14:29.811Z,31.56
2022-08-14T12:17:02.451Z,31.66
2022-08-14T12:19:33.491Z,31.75
2022-08-14T12:22:01.593Z,31.81
2022-08-14T12:24:32.078Z,31.89
2022-08-14T12:27:05.108Z,31.93
2022-08-14T12:29:35.032Z,31.96
2022-08-14T12:32:09.026Z,31.98
2022-08-14T12:34:45.046Z,31.90
2022-08-14T12:37:13.059Z,31.91
2022-08-14T12:39:41.040Z,31.98
2022-08-14T12:42:11.925Z,32.04
2022-08-14T12:44:58.678Z,32.11
2022-08-14T12:47:31.301Z,32.15
2022-08-14T12:49:59.562Z,32.09
2022-08-14T12:52:41.755Z,32.06
2022-08-14T12:55:20.929Z,32.17
2022-08-14T12:57:53.284Z,32.30
2022-08-14T13:00:24.451Z,32.41
2022-08-14T13:02:56.531Z,32.47
2022-08-14T13:05:27.485Z,32.39
2022-08-14T13:07:57.226Z,32.39
2022-08-14T13:10:47.884Z,32.47
2022-08-14T13:13:18.112Z,32.53
2022-08-14T13:15:48.346Z,32.58
2022-08-14T13:18:27.777Z,32.62
2022-08-14T13:20:59.730Z,32.56
2022-08-14T13:23:36.485Z,32.45
2022-08-14T13:26:05.812Z,32.29
2022-08-14T13:28:41.202Z,32.18
2022-08-14T13:31:30.075Z,32.12
2022-08-14T13:34:00.189Z,32.23
2022-08-14T13:36:51.833Z,32.32
2022-08-14T13:39:17.437Z,32.39
2022-08-14T13:41:46.950Z,32.42
2022-08-14T13:44:15.317Z,32.46
2022-08-14T13:46:50.268Z,32.45
2022-08-14T13:49:20.868Z,32.47
2022-08-14T13:51:54.136Z,32.60
2022-08-14T13:54:23.064Z,32.69
2022-08-14T13:56:50.873Z,32.79
2022-08-14T13:59:20.249Z,32.80
2022-08-14T14:01:51.775Z,32.90
2022-08-14T14:04:24.420Z,33.03
2022-08-14T14:06:52.800Z,33.04
2022-08-14T14:09:32.646Z,33.01
2022-08-14T14:12:37.721Z,32.91
2022-08-14T14:15:04.776Z,32.82
2022-08-14T14:17:33.500Z,32.84
2022-08-14T14:20:04.777Z,32.98
2022-08-14T14:22:34.320Z,33.10
2022-08-14T14:25:04.072Z,33.23
2022-08-14T14:27:41.704Z,33.31
2022-08-14T14:30:24.486Z,33.31
2022-08-14T14:33:04.404Z,33.41
2022-08-14T14:35:39.755Z,33.50
2022-08-14T14:38:08.634Z,33.52
2022-08-14T14:40:54.068Z,33.50
2022-08-14T14:43:28.733Z,33.36
2022-08-14T14:45:59.998Z,33.26
2022-08-14T14:48:31.397Z,33.25
2022-08-14T14:51:02.162Z,33.18
2022-08-14T14:53:38.601Z,33.06
2022-08-14T14:56:47.200Z,32.99
2022-08-14T14:58:57.403Z,32.92
2022-08-14T15:01:26.269Z,32.88
2022-08-14T15:03:56.439Z,32.76
2022-08-14T15:06:30.547Z,32.65
2022-08-14T15:09:02.051Z,32.57
2022-08-14T15:11:33.327Z,32.48
2022-08-14T15:14:01.581Z,32.47
2022-08-14T15:16:49.969Z,32.45
2022-08-14T15:19:18.378Z,32.46
2022-08-14T15:21:47.553Z,32.44
2022-08-14T15:24:20.755Z,32.40
2022-08-14T15:26:52.319Z,32.38
2022-08-14T15:29:20.058Z,32.41
2022-08-14T15:31:48.001Z,32.46
2022-08-14T15:34:43.038Z,32.49
2022-08-14T15:37:10.869Z,32.52
2022-08-14T15:39:41.883Z,32.46
2022-08-14T15:42:16.183Z,32.42
2022-08-14T15:44:57.419Z,32.37
2022-08-14T15:47:29.281Z,32.25
2022-08-14T15:49:59.029Z,32.19
2022-08-14T15:52:34.349Z,32.17
2022-08-14T15:55:05.965Z,32.17
2022-08-14T15:57:34.497Z,32.15
2022-08-14T16:00:21.537Z,32.08
2022-08-14T16:03:15.634Z,32.05
2022-08-14T16:05:45.747Z,32.07
2022-08-14T16:08:29.376Z,32.08
2022-08-14T16:11:00.647Z,32.06
2022-08-14T16:13:41.522Z,32.05
2022-08-14T16:16:35.037Z,32.09
2022-08-14T16:19:10.219Z,32.13
2022-08-14T16:22:01.324Z,32.16
2022-08-14T16:27:33.770Z,32.19
2022-08-14T16:30:12.218Z,32.15
2022-08-14T16:32:54.607Z,32.11
2022-08-14T16:35:25.099Z,32.05
2022-08-14T16:37:55.733Z,31.94
2022-08-14T16:40:24.219Z,32.17
2022-08-14T16:43:04.323Z,31.85
2022-08-14T16:45:43.690Z,31.83
2022-08-14T16:48:57.577Z,31.80
2022-08-14T16:51:01.656Z,31.72
2022-08-14T16:53:36.827Z,31.66
2022-08-14T16:56:23.796Z,31.64
2022-08-14T16:59:06.559Z,31.67
2022-08-14T17:01:36.911Z,31.66
2022-08-14T17:04:14.817Z,31.66
2022-08-14T17:06:54.975Z,31.64
2022-08-14T17:09:35.429Z,31.62
2022-08-14T17:12:08.488Z,31.59
2022-08-14T17:14:56.207Z,31.56
2022-08-14T17:17:27.739Z,31.55
2022-08-14T17:20:02.054Z,31.53
2022-08-14T17:22:48.453Z,31.50
2022-08-14T17:25:17.979Z,31.47
2022-08-14T17:28:51.569Z,31.43
2022-08-14T17:31:02.554Z,31.39
2022-08-14T17:33:33.785Z,31.37
2022-08-14T17:36:21.393Z,31.33
2022-08-14T17:39:02.728Z,31.30
2022-08-14T17:41:37.512Z,31.25
2022-08-14T17:44:33.716Z,31.21
2022-08-14T17:47:10.090Z,31.18
2022-08-14T17:49:46.229Z,31.14
2022-08-14T17:52:16.793Z,31.11
2022-08-14T17:54:52.900Z,31.09
2022-08-14T17:57:28.587Z,31.09
2022-08-14T17:59:59.013Z,31.08
2022-08-14T18:02:31.478Z,31.02
2022-08-14T18:05:03.162Z,30.95
2022-08-14T18:08:00.218Z,30.94
2022-08-14T18:10:55.398Z,30.90
2022-08-14T18:13:11.111Z,30.88
2022-08-14T18:15:43.186Z,30.85
2022-08-14T18:18:19.408Z,30.81
2022-08-14T18:21:41.814Z,30.79
2022-08-14T18:23:41.856Z,30.76
2022-08-14T18:26:37.141Z,30.72
2022-08-14T18:29:00.750Z,30.63
2022-08-14T18:31:43.510Z,30.55
2022-08-14T18:34:32.283Z,30.46
2022-08-14T18:37:14.287Z,30.40
2022-08-14T18:40:02.843Z,30.25
2022-08-14T18:42:44.299Z,30.18
2022-08-14T18:45:15.526Z,30.12
2022-08-14T18:48:14.689Z,30.09
2022-08-14T18:50:52.499Z,30.07
2022-08-14T18:53:25.178Z,30.05
2022-08-14T18:56:00.001Z,30.04
2022-08-14T18:58:49.078Z,30.01
2022-08-14T19:01:26.962Z,29.96
2022-08-14T19:04:02.194Z,29.90
2022-08-14T19:06:41.520Z,29.88
2022-08-14T19:09:44.056Z,29.85
2022-08-14T19:12:56.500Z,29.80
2022-08-14T19:15:27.242Z,29.74
2022-08-14T19:18:13.931Z,29.68
2022-08-14T19:20:52.856Z,29.64
2022-08-14T19:23:40.606Z,29.59
2022-08-14T19:26:37.047Z,29.49
2022-08-14T19:29:37.724Z,29.38
2022-08-14T19:32:39.760Z,29.30
2022-08-14T19:35:55.898Z,29.24
2022-08-14T19:38:48.023Z,29.14
2022-08-14T19:41:17.818Z,29.08
2022-08-14T19:43:55.523Z,29.03
2022-08-14T19:46:38.805Z,28.97
2022-08-14T19:49:23.234Z,28.92
2022-08-14T19:52:17.489Z,28.86
2022-08-14T19:54:50.480Z,28.79
2022-08-14T19:57:21.381Z,28.75
2022-08-14T20:00:00.512Z,28.70
2022-08-14T20:02:30.348Z,28.68
2022-08-14T20:05:00.467Z,28.65
2022-08-14T20:08:00.122Z,28.62
2022-08-14T20:11:03.251Z,28.59
2022-08-14T20:13:23.633Z,28.57
2022-08-14T20:15:52.116Z,28.55
2022-08-14T20:18:49.866Z,28.53
2022-08-14T20:21:14.908Z,28.52
2022-08-14T20:23:44.083Z,28.48
2022-08-14T20:26:31.943Z,28.43
2022-08-14T20:29:05.376Z,28.35
2022-08-14T20:31:38.553Z,28.30
2022-08-14T20:34:18.811Z,28.22
2022-08-14T20:37:04.470Z,28.14
2022-08-14T20:39:38.237Z,28.12
2022-08-14T20:42:31.958Z,28.12
2022-08-14T20:45:23.696Z,28.09
2022-08-14T20:48:00.767Z,28.05
2022-08-14T20:50:31.991Z,28.01
2022-08-14T20:53:00.822Z,27.96
2022-08-14T20:55:41.547Z,27.88
2022-08-14T20:58:43.237Z,27.85
2022-08-14T21:01:33.641Z,27.82
2022-08-14T21:04:05.099Z,27.70
2022-08-14T21:07:22.841Z,27.68
2022-08-14T21:10:05.158Z,27.63
2022-08-14T21:12:34.208Z,27.62
2022-08-14T21:15:11.151Z,27.57
2022-08-14T21:17:43.153Z,27.55
2022-08-14T21:20:25.392Z,27.53
2022-08-14T21:22:56.823Z,27.47
2022-08-14T21:25:31.927Z,27.43
2022-08-14T21:28:04.198Z,27.41
2022-08-14T21:30:46.948Z,27.40
2022-08-14T21:33:21.678Z,27.32
2022-08-14T21:35:50.056Z,27.28
2022-08-14T21:38:31.260Z,27.19
2022-08-14T21:41:41.607Z,27.13
2022-08-14T21:43:57.065Z,27.09
2022-08-14T21:46:25.446Z,27.09
2022-08-14T21:48:55.350Z,27.06
2022-08-14T21:51:53.418Z,27.00
2022-08-14T21:54:32.363Z,26.97
2022-08-14T21:57:02.235Z,26.94
2022-08-14T21:59:34.153Z,26.93
2022-08-14T22:02:05.720Z,26.88
2022-08-14T22:04:40.149Z,26.80
2022-08-14T22:07:12.129Z,26.77
2022-08-14T22:09:42.950Z,26.75
2022-08-14T22:12:58.687Z,26.74
2022-08-14T22:15:02.871Z,26.71
2022-08-14T22:28:32.851Z,26.41
2022-08-14T22:31:02.299Z,26.35
2022-08-14T22:33:30.810Z,26.34
2022-08-14T22:36:00.369Z,26.34
2022-08-14T22:38:35.536Z,26.33
2022-08-14T22:41:27.803Z,26.31
2022-08-14T22:43:59.467Z,26.31
2022-08-14T22:46:27.555Z,26.25
2022-08-14T22:48:57.573Z,26.21
2022-08-14T22:51:27.544Z,26.19
2022-08-14T22:53:56.902Z,26.18
2022-08-14T22:56:30.131Z,26.15
2022-08-14T22:59:00.115Z,26.11
2022-08-14T23:01:56.157Z,26.07
2022-08-14T23:04:34.848Z,26.00
2022-08-14T23:07:22.036Z,25.92
2022-08-14T23:09:56.914Z,25.86
2022-08-14T23:12:29.412Z,25.85
2022-08-14T23:14:59.556Z,25.83
2022-08-14T23:17:39.233Z,25.81
2022-08-14T23:20:18.855Z,25.79
2022-08-14T23:22:51.398Z,25.77
2022-08-14T23:25:57.291Z,25.75
2022-08-14T23:28:33.751Z,25.69
2022-08-14T23:30:57.458Z,25.67
2022-08-14T23:33:28.726Z,25.65
2022-08-14T23:35:58.874Z,25.61
2022-08-14T23:38:30.282Z,25.59
2022-08-14T23:41:00.851Z,25.52
2022-08-14T23:43:31.771Z,25.47
2022-08-14T23:46:00.639Z,25.39
2022-08-14T23:48:29.349Z,25.37
2022-08-14T23:51:00.175Z,25.34
2022-08-14T23:53:48.791Z,25.35
2022-08-14T23:56:32.298Z,25.29
2022-08-14T23:59:02.654Z,25.24
